Time;durP1;ratioP1;P1;durP2;ratioP2;P2;SDS_P1;SDS_P2;PMS_P1;PMS_P2;Temp;Humidity;BMP_temperature;BMP_pressure;BME280_temperature;BME280_humidity;BME280_pressure;Samples;Min_cycle;Max_cycle;Signal;HPM_P1;HPM_P2
2022/04/19 00:01:32;;;;;;;6.85;3.30;;;6.60;73.00;;;;;;5031429;28;20038;-69
2022/04/19 00:03:58;;;;;;;5.05;2.85;;;6.50;73.30;;;;;;5028321;28;20041;-69
2022/04/19 00:06:23;;;;;;;5.63;3.40;;;6.50;73.60;;;;;;5031388;28;20021;-69
2022/04/19 00:08:51;;;;;;;6.55;3.20;;;6.40;73.70;;;;;;5031460;28;20084;-69
2022/04/19 00:11:17;;;;;;;7.50;3.30;;;6.40;74.00;;;;;;5035763;28;20045;-71
2022/04/19 00:13:43;;;;;;;6.30;3.15;;;6.30;74.30;;;;;;5015100;28;20041;-69
2022/04/19 00:16:08;;;;;;;5.30;2.88;;;6.20;74.50;;;;;;5027137;28;20051;-69
2022/04/19 00:18:34;;;;;;;6.90;2.95;;;6.20;74.80;;;;;;5034186;28;20091;-69
2022/04/19 00:21:00;;;;;;;5.45;2.97;;;6.10;75.20;;;;;;5025094;28;20091;-69
2022/04/19 00:23:25;;;;;;;7.85;3.45;;;6.10;75.10;;;;;;5027629;28;20034;-69
2022/04/19 00:25:52;;;;;;;6.53;2.95;;;6.10;75.50;;;;;;5029516;28;20025;-69
2022/04/19 00:28:18;;;;;;;7.22;3.53;;;6.10;75.80;;;;;;5047005;28;20380;-70
2022/04/19 00:30:46;;;;;;;7.22;3.08;;;6.00;75.90;;;;;;5030422;28;20037;-69
2022/04/19 00:33:12;;;;;;;6.90;3.30;;;6.00;76.20;;;;;;5025994;28;20033;-69
2022/04/19 00:35:38;;;;;;;7.47;3.45;;;6.00;76.40;;;;;;5028176;28;20145;-70
2022/04/19 00:38:04;;;;;;;6.97;3.53;;;5.90;76.40;;;;;;5034438;28;20033;-70
2022/04/19 00:40:30;;;;;;;6.68;3.17;;;5.90;76.60;;;;;;5034387;28;20078;-69
2022/04/19 00:42:56;;;;;;;7.55;3.78;;;5.80;76.40;;;;;;5030473;28;20068;-70
2022/04/19 00:45:23;;;;;;;7.15;3.10;;;5.70;76.90;;;;;;5030914;28;20476;-69
2022/04/19 00:47:52;;;;;;;5.95;3.00;;;5.70;77.20;;;;;;5036625;28;20033;-69
2022/04/19 00:50:17;;;;;;;6.97;3.30;;;5.60;77.60;;;;;;5029303;28;20044;-69
2022/04/19 00:52:43;;;;;;;6.95;3.67;;;5.60;77.40;;;;;;5028767;28;20030;-70
2022/04/19 00:55:10;;;;;;;6.85;3.20;;;5.60;77.70;;;;;;5026757;28;20101;-69
2022/04/19 00:57:40;;;;;;;5.65;3.22;;;5.60;77.60;;;;;;5035259;28;20530;-69
2022/04/19 01:00:10;;;;;;;6.45;3.30;;;5.50;77.50;;;;;;5026450;28;20116;-70
2022/04/19 01:02:37;;;;;;;6.82;3.05;;;5.50;77.90;;;;;;5022277;28;20293;-70
2022/04/19 01:05:04;;;;;;;6.32;3.40;;;5.50;78.10;;;;;;5034011;28;20036;-69
2022/04/19 01:07:30;;;;;;;6.95;3.40;;;5.40;78.20;;;;;;5041177;28;20052;-69
2022/04/19 01:09:56;;;;;;;6.88;3.75;;;5.40;78.80;;;;;;5024116;28;20028;-69
2022/04/19 01:15:08;;;;;;;6.90;3.13;;;5.30;79.40;;;;;;5020225;28;20083;-70
2022/04/19 01:17:39;;;;;;;8.43;3.88;;;5.30;79.40;;;;;;5028889;28;20029;-69
2022/04/19 01:20:06;;;;;;;8.13;3.70;;;5.30;79.80;;;;;;5024567;28;20381;-69
2022/04/19 01:22:35;;;;;;;6.97;3.00;;;5.30;80.00;;;;;;5028527;28;20045;-69
2022/04/19 01:25:01;;;;;;;8.43;3.67;;;5.20;79.90;;;;;;5044662;28;20025;-69
2022/04/19 01:27:27;;;;;;;6.20;3.03;;;5.20;80.10;;;;;;5044789;28;20043;-69
2022/04/19 01:30:00;;;;;;;5.53;3.17;;;5.10;80.00;;;;;;5040923;28;20029;-69
2022/04/19 01:32:29;;;;;;;6.40;3.67;;;5.10;80.10;;;;;;5032430;28;20033;-69
2022/04/19 01:35:12;;;;;;;7.65;3.67;;;5.10;80.10;;;;;;5047236;28;20116;-69
2022/04/19 01:37:39;;;;;;;7.07;4.00;;;5.10;80.20;;;;;;5029885;28;20033;-70
2022/04/19 01:40:17;;;;;;;9.88;4.05;;;5.00;80.50;;;;;;5035650;28;20029;-69
2022/04/19 01:42:48;;;;;;;7.82;3.55;;;5.00;80.50;;;;;;5035174;28;20122;-69
2022/04/19 01:45:19;;;;;;;7.88;3.33;;;4.80;80.20;;;;;;5037714;28;20021;-69
2022/04/19 01:47:44;;;;;;;7.28;3.42;;;4.90;80.00;;;;;;5037319;28;20055;-69
2022/04/19 01:50:17;;;;;;;9.77;3.97;;;4.80;80.50;;;;;;5036014;28;20037;-70
2022/04/19 01:52:43;;;;;;;7.57;4.00;;;4.80;80.50;;;;;;5028316;28;20032;-69
2022/04/19 01:55:13;;;;;;;8.02;3.90;;;4.80;80.50;;;;;;5028379;28;20022;-69
2022/04/19 01:57:40;;;;;;;8.43;3.50;;;4.70;80.60;;;;;;5032436;28;20146;-69
2022/04/19 02:00:06;;;;;;;7.53;4.05;;;4.70;80.80;;;;;;5030685;28;20021;-69
2022/04/19 02:02:32;;;;;;;6.05;3.42;;;4.60;80.70;;;;;;5034939;28;20064;-69
2022/04/19 02:04:57;;;;;;;9.05;4.28;;;4.60;81.20;;;;;;5028597;28;20075;-69
2022/04/19 02:07:23;;;;;;;7.45;4.00;;;4.60;81.70;;;;;;5034548;28;20124;-69
2022/04/19 02:09:49;;;;;;;8.20;3.90;;;4.60;81.90;;;;;;5039593;28;20037;-69
2022/04/19 02:12:14;;;;;;;7.25;4.07;;;4.50;82.00;;;;;;5030883;28;20080;-69
2022/04/19 02:14:41;;;;;;;6.15;3.83;;;4.50;81.90;;;;;;5034169;28;20036;-69
2022/04/19 02:17:11;;;;;;;9.65;3.90;;;4.50;82.20;;;;;;5029087;28;20033;-69
2022/04/19 02:19:36;;;;;;;6.97;3.75;;;4.40;82.30;;;;;;5036328;28;20059;-69
2022/04/19 02:22:05;;;;;;;6.32;3.25;;;4.40;82.30;;;;;;5031620;28;20041;-69
2022/04/19 02:24:31;;;;;;;5.82;3.55;;;4.40;82.20;;;;;;5040411;28;20034;-69
2022/04/19 02:26:57;;;;;;;6.57;3.90;;;4.40;82.60;;;;;;5033710;28;20036;-69
2022/04/19 02:29:25;;;;;;;9.63;4.03;;;4.40;82.80;;;;;;5030862;28;20441;-69
2022/04/19 02:31:50;;;;;;;9.48;4.50;;;4.40;82.90;;;;;;5027532;28;20543;-69
2022/04/19 02:34:18;;;;;;;7.90;3.75;;;4.30;82.90;;;;;;5036092;28;20042;-69
2022/04/19 02:36:43;;;;;;;8.32;4.00;;;4.30;82.90;;;;;;5032026;28;20064;-69
2022/04/19 02:39:09;;;;;;;9.43;4.50;;;4.30;82.90;;;;;;5030638;28;20072;-69
2022/04/19 02:41:35;;;;;;;10.25;4.45;;;4.30;82.90;;;;;;5023060;28;20037;-70
2022/04/19 02:44:00;;;;;;;10.98;4.72;;;4.30;83.00;;;;;;5028447;28;20073;-69
2022/04/19 02:46:26;;;;;;;6.88;3.95;;;4.30;83.20;;;;;;5026561;28;20040;-69
2022/04/19 02:48:51;;;;;;;7.80;4.35;;;4.30;83.00;;;;;;5035496;28;20030;-69
2022/04/19 02:51:18;;;;;;;8.55;4.45;;;4.20;83.10;;;;;;5031875;28;20121;-69
2022/04/19 02:53:43;;;;;;;8.48;4.00;;;4.20;83.20;;;;;;5030678;28;20018;-69
2022/04/19 02:56:09;;;;;;;7.38;4.32;;;4.20;83.20;;;;;;5025051;28;20045;-69
2022/04/19 02:58:34;;;;;;;7.78;4.60;;;4.30;83.40;;;;;;5027763;28;20048;-69
2022/04/19 03:01:01;;;;;;;9.50;4.60;;;4.30;83.50;;;;;;5029175;28;20025;-69
2022/04/19 03:03:29;;;;;;;7.13;4.05;;;4.30;83.40;;;;;;5029164;28;20037;-69
2022/04/19 03:05:56;;;;;;;7.47;4.20;;;4.30;83.50;;;;;;5026479;28;20040;-69
2022/04/19 03:08:22;;;;;;;8.10;3.88;;;4.40;83.30;;;;;;5038498;28;20037;-69
2022/04/19 03:10:49;;;;;;;8.13;4.05;;;4.40;83.20;;;;;;5029726;28;20049;-69
2022/04/19 03:13:16;;;;;;;8.35;4.88;;;4.40;83.40;;;;;;5033352;28;20120;-69
2022/04/19 03:15:41;;;;;;;8.68;4.30;;;4.40;83.20;;;;;;5028042;28;20052;-69
2022/04/19 03:18:07;;;;;;;9.30;4.40;;;4.40;83.20;;;;;;5037129;28;20026;-69
2022/04/19 03:20:33;;;;;;;8.52;4.57;;;4.40;83.00;;;;;;5022313;28;20115;-69
2022/04/19 03:28:26;;;;;;;8.43;4.78;;;4.30;83.10;;;;;;5026558;28;20048;-69
2022/04/19 03:30:52;;;;;;;9.30;4.40;;;4.20;83.20;;;;;;5026026;28;20041;-69
2022/04/19 03:33:17;;;;;;;8.85;4.18;;;4.20;83.40;;;;;;5035000;28;20033;-69
2022/04/19 03:35:43;;;;;;;11.35;4.18;;;4.10;83.50;;;;;;5027706;28;20630;-69
2022/04/19 03:38:09;;;;;;;6.85;4.25;;;4.10;83.70;;;;;;5044838;28;20025;-69
2022/04/19 03:40:35;;;;;;;6.85;4.03;;;4.10;83.60;;;;;;5033011;28;20095;-69
2022/04/19 03:43:04;;;;;;;9.30;3.65;;;4.10;83.60;;;;;;5031903;28;20558;-69
2022/04/19 03:45:30;;;;;;;9.00;3.85;;;4.00;83.50;;;;;;5027145;28;20036;-69
2022/04/19 03:47:55;;;;;;;8.15;4.15;;;4.00;83.40;;;;;;5039311;28;20112;-69
2022/04/19 03:50:21;;;;;;;7.57;3.42;;;3.90;83.50;;;;;;5029956;28;20455;-69
2022/04/19 03:52:46;;;;;;;8.07;3.88;;;3.90;83.70;;;;;;5030578;28;20040;-69
2022/04/19 03:55:12;;;;;;;5.95;3.65;;;3.80;83.70;;;;;;5030376;28;20057;-69
2022/04/19 03:57:38;;;;;;;5.38;3.20;;;3.80;83.80;;;;;;5032130;28;20061;-69
2022/04/19 04:00:06;;;;;;;6.05;3.70;;;3.80;83.70;;;;;;5031802;28;20412;-69
2022/04/19 04:02:32;;;;;;;7.78;3.55;;;3.80;83.70;;;;;;5029741;28;20044;-69
2022/04/19 04:04:57;;;;;;;7.47;4.05;;;3.80;83.90;;;;;;5028412;28;20124;-69
2022/04/19 04:07:26;;;;;;;7.80;3.97;;;3.80;83.80;;;;;;5030640;28;20100;-69
2022/04/19 04:09:52;;;;;;;8.98;3.97;;;3.80;83.90;;;;;;5026637;28;20044;-69
2022/04/19 04:12:17;;;;;;;6.82;3.40;;;3.70;83.80;;;;;;5030750;28;20479;-69
2022/04/19 04:14:43;;;;;;;9.85;4.07;;;3.70;84.00;;;;;;5030529;28;20037;-69
2022/04/19 04:17:10;;;;;;;5.95;3.45;;;3.70;84.20;;;;;;5035359;28;20035;-69
2022/04/19 04:19:35;;;;;;;8.63;3.88;;;3.60;84.40;;;;;;5028074;28;20047;-66
2022/04/19 04:22:01;;;;;;;10.27;3.75;;;3.60;84.60;;;;;;5026743;28;20470;-66
2022/04/19 04:24:27;;;;;;;8.02;4.05;;;3.60;84.70;;;;;;5030371;28;20461;-65
2022/04/19 04:26:52;;;;;;;8.93;4.32;;;3.60;84.90;;;;;;5028514;28;20462;-65
2022/04/19 04:29:18;;;;;;;8.70;4.07;;;3.50;84.90;;;;;;5030568;28;20076;-66
2022/04/19 04:31:43;;;;;;;9.07;4.15;;;3.50;84.70;;;;;;5032483;28;20037;-66
2022/04/19 04:34:09;;;;;;;8.00;4.15;;;3.50;84.90;;;;;;5029223;28;20033;-66
2022/04/19 04:36:35;;;;;;;11.18;6.18;;;3.50;85.10;;;;;;5022332;28;20036;-66
2022/04/19 04:39:00;;;;;;;12.45;6.28;;;3.40;85.10;;;;;;5028833;28;20453;-66
2022/04/19 04:41:26;;;;;;;13.68;6.10;;;3.40;85.20;;;;;;5031814;28;20480;-66
2022/04/19 04:43:51;;;;;;;17.00;7.18;;;3.40;85.20;;;;;;5029261;28;20054;-66
2022/04/19 04:51:45;;;;;;;16.92;7.05;;;3.30;85.60;;;;;;5030648;28;20040;-66
2022/04/19 04:54:10;;;;;;;19.42;7.80;;;3.30;85.60;;;;;;5019902;28;20026;-66
2022/04/19 04:56:36;;;;;;;13.80;6.68;;;3.30;85.70;;;;;;5030462;28;20029;-66
2022/04/19 04:59:01;;;;;;;17.02;6.55;;;3.30;85.80;;;;;;5030699;28;20536;-66
2022/04/19 05:01:27;;;;;;;10.18;5.07;;;3.30;85.80;;;;;;5024474;28;20029;-66
2022/04/19 05:03:52;;;;;;;10.35;5.25;;;3.30;85.70;;;;;;5031399;28;20465;-66
2022/04/19 05:06:18;;;;;;;7.78;4.63;;;3.30;85.70;;;;;;5027367;28;20029;-66
2022/04/19 05:08:43;;;;;;;9.73;4.68;;;3.40;85.80;;;;;;5026647;28;20053;-66
2022/04/19 05:11:09;;;;;;;7.65;4.25;;;3.30;85.70;;;;;;5022592;28;20120;-66
2022/04/19 05:13:34;;;;;;;6.15;3.95;;;3.40;85.50;;;;;;5025068;28;20048;-66
2022/04/19 05:16:00;;;;;;;9.38;4.72;;;3.40;85.50;;;;;;5024175;28;20036;-66
2022/04/19 05:18:26;;;;;;;8.98;4.80;;;3.40;85.70;;;;;;5028691;28;20362;-66
2022/04/19 05:20:52;;;;;;;16.75;5.90;;;3.40;85.90;;;;;;5025380;28;20037;-66
2022/04/19 05:23:18;;;;;;;15.68;6.50;;;3.50;85.90;;;;;;5021811;28;20427;-66
2022/04/19 05:25:43;;;;;;;15.82;6.57;;;3.50;85.70;;;;;;5020633;28;20025;-66
2022/04/19 05:28:09;;;;;;;15.15;6.85;;;3.60;85.80;;;;;;5023885;28;20115;-66
2022/04/19 05:30:35;;;;;;;13.20;5.93;;;3.60;85.80;;;;;;5022607;28;20037;-66
2022/04/19 05:33:00;;;;;;;13.18;5.90;;;3.60;85.70;;;;;;5028596;28;20041;-66
2022/04/19 05:35:26;;;;;;;11.48;5.03;;;3.70;85.50;;;;;;5020120;28;20029;-66
2022/04/19 05:37:52;;;;;;;9.10;4.93;;;3.70;85.40;;;;;;5019379;28;20033;-65
2022/04/19 05:40:18;;;;;;;10.02;4.88;;;3.80;85.40;;;;;;5023753;28;20112;-66
2022/04/19 05:42:43;;;;;;;8.18;4.50;;;3.90;85.30;;;;;;5026614;28;20108;-66
2022/04/19 05:45:09;;;;;;;8.23;4.15;;;4.10;85.30;;;;;;5018213;28;20099;-66
2022/04/19 05:47:35;;;;;;;7.45;3.90;;;4.20;85.10;;;;;;5026034;28;20052;-66
2022/04/19 05:50:00;;;;;;;9.75;4.40;;;4.30;84.80;;;;;;5025645;28;20029;-66
2022/04/19 05:52:26;;;;;;;6.13;3.38;;;4.50;84.10;;;;;;5029754;28;20041;-68
2022/04/19 05:54:51;;;;;;;5.90;3.80;;;4.60;83.60;;;;;;5021842;28;20033;-67
2022/04/19 05:57:17;;;;;;;6.18;3.72;;;4.80;82.50;;;;;;5029307;28;20062;-66
2022/04/19 05:59:42;;;;;;;6.72;3.63;;;5.00;81.20;;;;;;5028903;28;20033;-66
2022/04/19 06:04:52;;;;;;;5.55;2.85;;;5.30;79.40;;;;;;5037425;28;20120;-66
2022/04/19 06:07:22;;;;;;;5.97;2.90;;;5.40;79.10;;;;;;5037681;28;20102;-66
2022/04/19 06:09:47;;;;;;;7.80;3.50;;;5.50;78.80;;;;;;5030600;28;20341;-66
2022/04/19 06:12:13;;;;;;;7.28;3.67;;;5.70;78.60;;;;;;5039370;28;20037;-66
2022/04/19 06:14:39;;;;;;;5.38;2.95;;;5.80;79.20;;;;;;5038609;28;20029;-66
2022/04/19 06:17:05;;;;;;;5.47;2.95;;;6.00;78.20;;;;;;5040144;28;20029;-66
2022/04/19 06:19:30;;;;;;;4.50;2.45;;;6.10;76.30;;;;;;5033934;28;20465;-66
2022/04/19 06:21:57;;;;;;;4.93;2.92;;;6.30;74.10;;;;;;5033708;28;20040;-67
2022/04/19 06:24:23;;;;;;;7.75;2.67;;;6.50;73.30;;;;;;5032651;28;20029;-66
2022/04/19 06:26:48;;;;;;;4.80;2.45;;;6.70;72.90;;;;;;5024164;28;20063;-66
2022/04/19 06:29:14;;;;;;;4.35;2.28;;;6.80;72.40;;;;;;5029577;28;20112;-66
2022/04/19 06:31:46;;;;;;;5.05;2.67;;;6.90;70.30;;;;;;5021966;28;20121;-67
2022/04/19 06:34:12;;;;;;;3.65;2.38;;;7.10;70.40;;;;;;5031648;28;20420;-67
2022/04/19 06:36:38;;;;;;;6.28;2.53;;;7.40;69.00;;;;;;5031286;28;20044;-67
2022/04/19 06:39:03;;;;;;;6.13;2.92;;;7.70;69.40;;;;;;5030314;28;20086;-67
2022/04/19 06:41:29;;;;;;;4.00;2.08;;;7.60;67.50;;;;;;5024640;28;20533;-66
2022/04/19 06:43:57;;;;;;;4.18;2.33;;;7.70;66.60;;;;;;5029661;28;20057;-66
2022/04/19 06:46:25;;;;;;;4.20;2.22;;;8.00;66.90;;;;;;5034135;28;20040;-66
2022/04/19 06:48:51;;;;;;;6.03;2.13;;;8.10;65.20;;;;;;5032288;28;20064;-66
2022/04/19 06:51:17;;;;;;;4.30;2.17;;;8.40;66.00;;;;;;5031061;28;20479;-66
2022/04/19 06:53:43;;;;;;;4.40;2.00;;;8.70;63.50;;;;;;5024649;28;20017;-66
2022/04/19 06:56:10;;;;;;;4.07;1.75;;;8.70;60.60;;;;;;5027839;28;20064;-66
2022/04/19 06:58:36;;;;;;;3.35;1.75;;;9.00;58.90;;;;;;5031558;28;20451;-67
2022/04/19 07:01:02;;;;;;;2.95;1.60;;;9.30;58.40;;;;;;5023788;28;20043;-67
2022/04/19 07:03:27;;;;;;;3.55;1.80;;;9.50;53.10;;;;;;5028041;28;20030;-67
2022/04/19 07:05:53;;;;;;;4.18;1.80;;;9.70;51.30;;;;;;5038633;28;20473;-67
2022/04/19 07:08:18;;;;;;;3.15;1.50;;;9.80;53.40;;;;;;5028609;28;20178;-67
2022/04/19 07:10:44;;;;;;;2.72;1.10;;;10.20;52.80;;;;;;5028334;28;20400;-67
2022/04/19 07:13:10;;;;;;;4.55;1.48;;;10.50;52.40;;;;;;5025828;28;20037;-67
2022/04/19 07:15:35;;;;;;;2.40;1.20;;;10.60;48.50;;;;;;5030261;28;20411;-66
2022/04/19 07:18:01;;;;;;;1.58;0.98;;;10.50;48.20;;;;;;5025046;28;20040;-67
2022/04/19 07:28:39;;;;;;;1.80;1.13;;;10.40;47.20;;;;;;5023000;28;20116;-67
2022/04/19 07:31:05;;;;;;;1.92;1.17;;;10.70;46.80;;;;;;5025371;28;20467;-67
2022/04/19 07:33:31;;;;;;;2.10;0.82;;;10.80;46.30;;;;;;5025514;28;20438;-67
2022/04/19 07:35:57;;;;;;;3.42;1.30;;;11.00;45.90;;;;;;5022732;28;20037;-67
2022/04/19 07:38:23;;;;;;;3.20;1.10;;;11.30;45.40;;;;;;5022125;28;20036;-67
2022/04/19 07:40:49;;;;;;;2.10;1.00;;;11.60;45.40;;;;;;5030128;28;20029;-67
2022/04/19 07:43:15;;;;;;;2.50;1.15;;;11.80;43.60;;;;;;5026088;28;20042;-68
2022/04/19 07:45:41;;;;;;;2.25;0.90;;;12.00;46.20;;;;;;5024010;28;20877;-68
2022/04/19 07:48:07;;;;;;;2.33;0.73;;;11.70;41.50;;;;;;5026322;28;20472;-68
2022/04/19 07:50:34;;;;;;;1.25;0.90;;;11.60;42.00;;;;;;5030799;28;20040;-68
2022/04/19 07:52:59;;;;;;;2.25;1.10;;;11.90;43.20;;;;;;5021411;28;20022;-67
2022/04/19 07:55:25;;;;;;;2.22;1.10;;;12.10;43.00;;;;;;5030863;28;20029;-67
2022/04/19 07:57:51;;;;;;;4.97;1.10;;;12.10;42.50;;;;;;5030158;28;20536;-68
2022/04/19 08:00:17;;;;;;;2.05;1.00;;;12.10;41.40;;;;;;5028981;28;20486;-68
2022/04/19 08:02:43;;;;;;;2.22;1.08;;;12.40;43.60;;;;;;5025329;28;20029;-68
2022/04/19 08:05:09;;;;;;;2.42;1.08;;;12.70;42.30;;;;;;5021207;28;20021;-68
2022/04/19 08:07:35;;;;;;;2.70;1.30;;;12.50;41.00;;;;;;5018901;28;20194;-68
2022/04/19 08:10:01;;;;;;;2.67;1.20;;;12.70;42.40;;;;;;5025094;28;20025;-67
2022/04/19 08:12:27;;;;;;;2.88;1.38;;;13.20;42.10;;;;;;5025496;28;20408;-67
2022/04/19 08:14:53;;;;;;;2.85;1.00;;;13.30;42.40;;;;;;5035807;28;20029;-67
2022/04/19 08:17:18;;;;;;;2.08;1.27;;;13.00;42.00;;;;;;5018005;28;20029;-67
2022/04/19 08:19:44;;;;;;;4.10;1.25;;;13.00;42.60;;;;;;5029828;28;20025;-68
2022/04/19 08:22:10;;;;;;;3.40;1.55;;;13.10;44.60;;;;;;5023286;28;20481;-68
2022/04/19 08:24:35;;;;;;;3.90;1.50;;;13.40;42.70;;;;;;5029448;28;20018;-67
2022/04/19 08:27:01;;;;;;;4.63;1.67;;;13.40;42.20;;;;;;5023503;28;20465;-68
2022/04/19 08:29:26;;;;;;;2.00;1.08;;;13.60;43.70;;;;;;5023940;28;20161;-68
2022/04/19 08:31:52;;;;;;;2.05;1.10;;;14.00;41.30;;;;;;5022715;28;20038;-68
2022/04/19 08:34:17;;;;;;;1.15;0.77;;;13.60;41.40;;;;;;5024872;28;20049;-67
2022/04/19 08:36:43;;;;;;;4.18;1.20;;;13.60;40.30;;;;;;5021648;28;20464;-68
2022/04/19 08:39:09;;;;;;;7.40;1.10;;;14.30;40.70;;;;;;5022310;28;20040;-68
2022/04/19 08:41:37;;;;;;;2.42;1.10;;;14.70;39.30;;;;;;5022015;28;20031;-68
2022/04/19 08:44:04;;;;;;;2.42;0.80;;;14.30;39.90;;;;;;5027136;28;20072;-68
2022/04/19 08:46:31;;;;;;;3.05;1.20;;;14.20;39.10;;;;;;5030492;28;20037;-68
2022/04/19 08:49:05;;;;;;;4.03;1.40;;;14.60;40.00;;;;;;5020368;28;20029;-68
2022/04/19 08:51:34;;;;;;;2.80;1.23;;;14.40;42.40;;;;;;5030021;28;20033;-67
2022/04/19 08:59:30;;;;;;;3.13;1.10;;;15.10;41.40;;;;;;5026181;28;20036;-67
2022/04/19 09:01:55;;;;;;;2.88;1.42;;;15.30;41.00;;;;;;5034083;28;20117;-68
2022/04/19 09:04:22;;;;;;;3.72;1.17;;;15.30;41.90;;;;;;5027138;28;20120;-67
2022/04/19 09:06:52;;;;;;;4.47;1.58;;;16.00;40.00;;;;;;5038685;28;20096;-68
2022/04/19 09:09:22;;;;;;;2.90;1.67;;;15.90;38.90;;;;;;5020415;28;20116;-68
2022/04/19 09:11:48;;;;;;;4.43;1.45;;;16.10;40.00;;;;;;5034188;28;20468;-68
2022/04/19 09:14:14;;;;;;;2.67;1.52;;;15.50;40.30;;;;;;5033302;28;20064;-68
2022/04/19 09:16:40;;;;;;;6.60;1.95;;;15.90;41.20;;;;;;5022765;28;20036;-68
2022/04/19 09:19:08;;;;;;;3.88;1.85;;;15.80;40.40;;;;;;5027643;28;20025;-67
2022/04/19 09:21:38;;;;;;;3.92;1.83;;;16.10;41.80;;;;;;5024367;28;20481;-68
2022/04/19 09:24:18;;;;;;;4.03;2.00;;;15.90;40.80;;;;;;5029383;28;20105;-68
2022/04/19 09:26:48;;;;;;;3.78;2.03;;;16.10;39.00;;;;;;5021209;28;20052;-68
2022/04/19 09:29:24;;;;;;;3.42;1.65;;;16.10;39.90;;;;;;5023724;28;20029;-68
2022/04/19 09:31:52;;;;;;;3.25;1.98;;;16.00;41.00;;;;;;5032631;28;20472;-68
2022/04/19 09:34:28;;;;;;;4.10;1.90;;;15.90;41.10;;;;;;5029358;28;20032;-68
2022/04/19 09:37:07;;;;;;;3.92;2.00;;;16.00;40.20;;;;;;5025622;28;20113;-68
2022/04/19 09:39:37;;;;;;;4.25;1.80;;;16.00;39.70;;;;;;5031507;28;20051;-68
2022/04/19 09:42:12;;;;;;;4.20;1.73;;;15.90;40.30;;;;;;5040133;28;20163;-67
2022/04/19 09:44:39;;;;;;;4.55;2.10;;;16.20;40.70;;;;;;5038740;28;20056;-68
2022/04/19 09:47:06;;;;;;;5.40;1.83;;;16.50;39.20;;;;;;5028752;28;20384;-67
2022/04/19 09:49:48;;;;;;;6.40;2.13;;;16.40;40.20;;;;;;5027853;28;20425;-68
2022/04/19 09:52:22;;;;;;;4.20;1.98;;;16.40;39.80;;;;;;5023262;28;20076;-68
2022/04/19 09:55:08;;;;;;;4.47;1.88;;;16.70;39.60;;;;;;5035540;28;20472;-68
2022/04/19 09:57:40;;;;;;;4.88;2.10;;;16.30;39.20;;;;;;5017453;28;20124;-67
2022/04/19 10:00:09;;;;;;;4.30;2.17;;;16.80;40.40;;;;;;5020645;28;20037;-68
2022/04/19 10:08:21;;;;;;;4.72;2.40;;;16.50;40.20;;;;;;5036853;28;20040;-68
2022/04/19 10:10:51;;;;;;;6.25;2.20;;;17.00;40.80;;;;;;5031073;28;20037;-68
2022/04/19 10:13:19;;;;;;;3.20;1.67;;;16.50;40.30;;;;;;5029854;28;20386;-68
2022/04/19 10:15:45;;;;;;;4.50;1.95;;;16.60;40.50;;;;;;5029109;28;20029;-68
2022/04/19 10:18:12;;;;;;;4.25;1.88;;;16.90;39.90;;;;;;5024947;28;20159;-68
2022/04/19 10:20:42;;;;;;;6.63;2.50;;;17.00;39.60;;;;;;5025377;28;20446;-68
2022/04/19 10:23:10;;;;;;;5.25;2.30;;;17.30;40.70;;;;;;5025523;28;20021;-68
2022/04/19 10:25:43;;;;;;;3.47;2.13;;;17.50;39.70;;;;;;5035009;28;20106;-68
2022/04/19 10:28:13;;;;;;;6.90;2.35;;;17.10;39.50;;;;;;5028728;28;20034;-68
2022/04/19 10:30:47;;;;;;;4.88;1.98;;;17.80;40.20;;;;;;5028809;28;20040;-68
2022/04/19 10:33:50;;;;;;;4.15;1.77;;;17.20;39.00;;;;;;5032843;28;20183;-68
2022/04/19 10:36:37;;;;;;;4.28;2.15;;;17.10;42.30;;;;;;5026017;28;20469;-68
2022/04/19 10:39:11;;;;;;;5.15;1.90;;;16.70;40.20;;;;;;5031639;28;20120;-68
2022/04/19 10:41:56;;;;;;;4.95;2.08;;;17.50;39.70;;;;;;5030657;28;20035;-68
2022/04/19 10:44:32;;;;;;;4.55;1.80;;;17.90;40.10;;;;;;5023537;28;20048;-68
2022/04/19 10:47:11;;;;;;;3.03;1.85;;;18.20;39.30;;;;;;5031281;28;20029;-68
2022/04/19 10:50:03;;;;;;;4.30;1.83;;;18.50;39.50;;;;;;5019082;28;20112;-68
2022/04/19 10:52:42;;;;;;;3.97;1.80;;;18.70;37.80;;;;;;5027447;28;20037;-68
2022/04/19 10:55:18;;;;;;;4.43;1.38;;;18.60;38.70;;;;;;5023928;28;20029;-68
2022/04/19 10:58:21;;;;;;;5.35;1.85;;;18.90;39.30;;;;;;5027953;28;20033;-69
2022/04/19 11:01:32;;;;;;;5.47;1.70;;;18.90;41.30;;;;;;5030513;28;20055;-69
2022/04/19 11:03:58;;;;;;;5.40;1.77;;;18.90;38.40;;;;;;5006620;28;20128;-68
2022/04/19 11:06:34;;;;;;;5.90;1.77;;;19.20;38.80;;;;;;5028391;28;20034;-68
2022/04/19 11:09:23;;;;;;;1.85;1.05;;;18.80;38.40;;;;;;5027655;28;20033;-69
2022/04/19 11:12:06;;;;;;;3.55;1.15;;;18.70;38.00;;;;;;5033056;28;20037;-69
2022/04/19 11:14:37;;;;;;;4.82;1.63;;;19.20;40.80;;;;;;5026823;28;20454;-68
2022/04/19 11:17:19;;;;;;;;;;;19.30;38.60;;;;;;5040328;28;20036;-68
2022/04/19 11:19:56;;;;;;;2.35;1.05;;;19.40;38.90;;;;;;5028780;28;19912;-68
2022/04/19 11:22:42;;;;;;;4.05;1.25;;;19.30;36.80;;;;;;5036548;28;20048;-69
2022/04/19 11:25:08;;;;;;;3.40;1.75;;;19.60;39.40;;;;;;5024882;28;20056;-68
2022/04/19 11:27:52;;;;;;;1.67;1.23;;;19.30;37.60;;;;;;5028701;28;20037;-68
2022/04/19 11:30:17;;;;;;;3.47;1.35;;;19.40;38.40;;;;;;5028230;28;20037;-68
2022/04/19 11:32:53;;;;;;;2.78;1.20;;;19.10;37.80;;;;;;5041755;28;20365;-68
2022/04/19 11:35:20;;;;;;;2.47;1.20;;;19.50;36.90;;;;;;5028261;28;20025;-68
2022/04/19 11:37:46;;;;;;;2.65;1.02;;;19.50;37.30;;;;;;5022508;28;20029;-68
2022/04/19 11:48:38;;;;;;;2.38;1.08;;;20.00;37.20;;;;;;5029500;28;20064;-69
2022/04/19 11:51:09;;;;;;;2.20;1.08;;;20.30;37.00;;;;;;5029144;28;20052;-69
2022/04/19 11:53:35;;;;;;;3.65;0.95;;;20.30;36.50;;;;;;5029062;28;20112;-69
2022/04/19 11:56:01;;;;;;;2.55;1.10;;;20.00;35.40;;;;;;5031267;28;20036;-69
2022/04/19 11:58:27;;;;;;;1.60;1.00;;;20.00;35.70;;;;;;5034551;28;20025;-69
2022/04/19 12:01:03;;;;;;;1.33;0.73;;;20.20;35.70;;;;;;5017344;28;20987;-69
2022/04/19 12:03:32;;;;;;;1.33;1.00;;;20.10;36.00;;;;;;5024234;28;20243;-68
2022/04/19 12:06:08;;;;;;;1.95;1.00;;;20.60;35.40;;;;;;5027371;28;20385;-69
2022/04/19 12:08:37;;;;;;;1.05;0.70;;;20.90;35.60;;;;;;5025971;28;20022;-68
2022/04/19 12:11:05;;;;;;;2.75;1.00;;;21.10;35.00;;;;;;5033672;28;20064;-69
2022/04/19 12:13:31;;;;;;;2.05;1.10;;;20.70;34.30;;;;;;5030101;28;20022;-69
2022/04/19 12:15:57;;;;;;;2.47;0.95;;;20.70;36.40;;;;;;5024617;28;20476;-69
2022/04/19 12:18:36;;;;;;;2.00;0.98;;;20.60;33.80;;;;;;5028172;28;20117;-69
2022/04/19 12:21:03;;;;;;;1.58;0.75;;;21.20;34.20;;;;;;5023739;28;20026;-69
2022/04/19 12:23:28;;;;;;;2.83;0.65;;;21.00;32.70;;;;;;5030978;28;20457;-69
2022/04/19 12:26:10;;;;;;;2.40;0.80;;;21.20;34.40;;;;;;5028977;28;20029;-69
2022/04/19 12:28:47;;;;;;;2.53;0.85;;;20.90;34.00;;;;;;5029942;28;20448;-68
2022/04/19 12:31:35;;;;;;;3.15;0.80;;;20.90;32.70;;;;;;5027702;28;20045;-68
2022/04/19 12:34:02;;;;;;;2.72;0.77;;;21.30;32.70;;;;;;5026171;28;20034;-68
2022/04/19 12:36:28;;;;;;;2.80;0.85;;;21.40;33.90;;;;;;5020162;28;20382;-69
2022/04/19 12:39:04;;;;;;;1.23;0.70;;;21.50;32.70;;;;;;5022549;28;20105;-69
2022/04/19 12:41:44;;;;;;;1.48;0.70;;;21.60;33.00;;;;;;5026525;28;20476;-69
2022/04/19 12:44:15;;;;;;;2.70;0.80;;;22.00;32.70;;;;;;5030078;28;20469;-69
2022/04/19 12:46:51;;;;;;;1.95;0.70;;;22.30;32.80;;;;;;5023839;28;20765;-69
2022/04/19 12:49:26;;;;;;;2.38;0.73;;;22.00;32.10;;;;;;5012351;28;20037;-69
2022/04/19 12:52:04;;;;;;;2.53;0.68;;;22.20;31.80;;;;;;5024461;28;20037;-69
2022/04/19 12:54:32;;;;;;;1.35;0.63;;;22.20;33.00;;;;;;5035923;28;20388;-69
2022/04/19 12:57:00;;;;;;;2.15;0.60;;;22.60;31.90;;;;;;5022026;28;20022;-69
2022/04/19 12:59:27;;;;;;;1.10;0.60;;;22.70;31.00;;;;;;5028289;28;20021;-69
2022/04/19 13:01:53;;;;;;;1.02;0.55;;;22.00;31.10;;;;;;5022885;28;20026;-69
2022/04/19 13:04:19;;;;;;;1.58;0.80;;;22.50;32.40;;;;;;5024318;28;20436;-69
2022/04/19 13:12:26;;;;;;;1.20;0.60;;;22.50;30.40;;;;;;5034677;28;20405;-69
2022/04/19 13:14:55;;;;;;;1.15;0.45;;;22.90;29.90;;;;;;5025539;28;20032;-69
2022/04/19 13:17:21;;;;;;;1.67;0.60;;;22.60;29.40;;;;;;5027451;28;20038;-69
2022/04/19 13:19:47;;;;;;;1.15;0.60;;;23.10;31.30;;;;;;5030778;28;20037;-69
2022/04/19 13:22:13;;;;;;;0.77;0.60;;;23.70;30.40;;;;;;5030394;28;20041;-69
2022/04/19 13:24:39;;;;;;;2.78;0.70;;;24.20;28.90;;;;;;5024752;28;20056;-69
2022/04/19 13:27:13;;;;;;;2.25;0.90;;;24.00;28.10;;;;;;5026558;28;20064;-69
2022/04/19 13:29:40;;;;;;;2.88;0.65;;;23.70;28.10;;;;;;5030717;28;20034;-69
2022/04/19 13:32:06;;;;;;;1.08;0.60;;;23.60;29.00;;;;;;5022317;28;20037;-69
2022/04/19 13:34:32;;;;;;;1.70;0.47;;;23.80;28.30;;;;;;5030947;28;20065;-69
2022/04/19 13:36:59;;;;;;;0.38;0.38;;;24.10;28.30;;;;;;5030274;28;20066;-69
2022/04/19 13:39:25;;;;;;;1.65;0.55;;;23.70;27.30;;;;;;5027386;28;20038;-69
2022/04/19 13:41:51;;;;;;;1.27;0.60;;;24.30;27.00;;;;;;5031022;28;20117;-69
2022/04/19 13:44:17;;;;;;;1.17;0.50;;;24.50;27.50;;;;;;5034023;28;20132;-69
2022/04/19 13:46:44;;;;;;;0.88;0.65;;;24.40;26.70;;;;;;5021435;28;20029;-69
2022/04/19 13:49:10;;;;;;;3.97;0.70;;;24.00;26.90;;;;;;5021330;28;20029;-69